Pilote(s) en ligne...
 K-NAVO (Patrick)  
 F-JUJU (Julien)  
 F-PIER (pierrot)  

Compagnie Fsx-France ! Un nouveau look pour votre VA, par : Julien & Co

 METAR ET TAF INFORMATION
METAR FOR LEIB
ADDS - METARS form results

(2223 UTC 29 October 2020)
Data provider http://aviationweather.gov/metar/data/
 
METAR text: LEIB 292200Z VRB02KT CAVOK 15/14 Q1026 NOSIG
Conditions at: LEIB (IBIZA/ES CODOLA , ES) observed 2200 UTC 29 October 2020
Temperature: 15.0°C (59°F)
Dewpoint: 14.0°C (57°F) [RH = 94%]
Pressure (altimeter): 30.30 inches Hg (1026.0 mb)
Winds: variable direction winds at 2 MPH (2 knots; 1.0 m/s)
Visibility: 6 or more miles (10+ km)
Ceiling: ceiling and visibility are OK
Clouds: unknown
Weather: no significant weather observed at this time

METAR text: LEIB 292130Z VRB02KT CAVOK 15/14 Q1026 NOSIG
Conditions at: LEIB (IBIZA/ES CODOLA , ES) observed 2130 UTC 29 October 2020
Temperature: 15.0°C (59°F)
Dewpoint: 14.0°C (57°F) [RH = 94%]
Pressure (altimeter): 30.30 inches Hg (1026.0 mb)
Winds: variable direction winds at 2 MPH (2 knots; 1.0 m/s)
Visibility: 6 or more miles (10+ km)
Ceiling: ceiling and visibility are OK
Clouds: unknown
Weather: no significant weather observed at this time

Forecast for: LEIB (IBIZA/ES CODOLA , ES)
Text: TAF LEIB 292000Z 2921/3021 VRB04KT 9999 FEW010 TX23/3012Z TN14/3005Z
Forecast period: 2100 UTC 29 October 2020 to 2100 UTC 30 October 2020
Forecast type: FROM: standard forecast or significant change
Winds: variable direction winds at 5 MPH (4 knots; 2.1 m/s)
Visibility: 6 or more miles (10+ km)
Ceiling: at least 12,000 feet AGL
Clouds: few clouds at 1000 feet AGL
Weather: no significant weather forecast for this period
Text: PROB30
Forecast period: 2100 UTC 29 October 2020 to 0800 UTC 30 October 2020
Forecast type: TEMPORARY: The following changes expected for less than half the time period
Visibility: 1.86 miles (2.99 km)
Ceiling: 1000 feet AGL
Clouds: broken clouds at 1000 feet AGL
Weather: BR  (mist)

 AÉROPORT DE AÉROPORT

 INFORMATIONS DE PISTE
Piste 06 Longueur de la piste 2800 m = 9186 ft Largeur de la piste 45 m = 148 ft
Élévation de la piste 13 ft Seuil de la piste déplacés 0 ft Runway heading 62
Piste 24 Longueur de la piste 2800 m = 9186 ft Largeur de la piste 45 m = 148 ft
Élévation de la piste 16 ft Seuil de la piste déplacés 0 ft Runway heading 242
 AÉROPORT FRÉQUENCES
Type APP Nom PALMA APP Féquence 118.125 MHZ
Type APP Nom APP Féquence 119.8 MHZ
Type ATIS Nom ATIS Féquence 117.8 MHZ
Type GND Nom GND Féquence 121.8 MHZ
Type TWR Nom TWR Féquence 118.5 MHZ

 AIDES A LA NAVIGATION
Type VOR-DME Nom Ibiza Féquence 117800 KHZ
Type NDB Nom Ibiza Féquence 394 KHZ